sensor_id;sensor_type;location;lat;lon;timestamp;P1;durP1;ratioP1;P2;durP2;ratioP2
8887;SDS011;4480;52.370;9.748;2023-06-14T00:01:14;4.20;;;3.80;;
8887;SDS011;4480;52.370;9.748;2023-06-14T00:03:42;4.50;;;3.27;;
8887;SDS011;4480;52.370;9.748;2023-06-14T00:06:08;5.03;;;3.03;;
8887;SDS011;4480;52.370;9.748;2023-06-14T00:08:35;3.70;;;3.40;;
8887;SDS011;4480;52.370;9.748;2023-06-14T00:11:02;4.03;;;3.20;;
8887;SDS011;4480;52.370;9.748;2023-06-14T00:13:29;7.37;;;3.00;;
8887;SDS011;4480;52.370;9.748;2023-06-14T00:15:56;6.20;;;3.30;;
8887;SDS011;4480;52.370;9.748;2023-06-14T00:18:24;2.93;;;2.70;;
8887;SDS011;4480;52.370;9.748;2023-06-14T00:20:54;4.27;;;3.40;;
8887;SDS011;4480;52.370;9.748;2023-06-14T00:23:21;3.83;;;3.23;;
8887;SDS011;4480;52.370;9.748;2023-06-14T00:25:48;3.50;;;3.00;;
8887;SDS011;4480;52.370;9.748;2023-06-14T00:28:15;3.60;;;3.30;;
8887;SDS011;4480;52.370;9.748;2023-06-14T00:30:41;5.73;;;3.40;;
8887;SDS011;4480;52.370;9.748;2023-06-14T00:33:10;3.83;;;3.50;;
8887;SDS011;4480;52.370;9.748;2023-06-14T00:35:38;4.07;;;3.67;;
8887;SDS011;4480;52.370;9.748;2023-06-14T00:38:05;4.83;;;4.00;;
8887;SDS011;4480;52.370;9.748;2023-06-14T00:40:32;4.00;;;3.60;;
8887;SDS011;4480;52.370;9.748;2023-06-14T00:42:59;3.47;;;3.17;;
8887;SDS011;4480;52.370;9.748;2023-06-14T00:45:26;5.30;;;3.03;;
8887;SDS011;4480;52.370;9.748;2023-06-14T00:47:53;3.43;;;3.13;;
8887;SDS011;4480;52.370;9.748;2023-06-14T00:50:20;5.30;;;3.17;;
8887;SDS011;4480;52.370;9.748;2023-06-14T00:52:49;5.00;;;3.30;;
8887;SDS011;4480;52.370;9.748;2023-06-14T00:55:16;3.13;;;2.83;;
8887;SDS011;4480;52.370;9.748;2023-06-14T00:57:43;6.00;;;3.10;;
8887;SDS011;4480;52.370;9.748;2023-06-14T01:00:11;4.23;;;2.90;;
8887;SDS011;4480;52.370;9.748;2023-06-14T01:02:39;3.73;;;3.20;;
8887;SDS011;4480;52.370;9.748;2023-06-14T01:05:06;3.17;;;2.87;;
8887;SDS011;4480;52.370;9.748;2023-06-14T01:07:37;5.13;;;3.00;;
8887;SDS011;4480;52.370;9.748;2023-06-14T01:10:18;3.37;;;3.07;;
8887;SDS011;4480;52.370;9.748;2023-06-14T01:12:53;2.97;;;2.67;;
8887;SDS011;4480;52.370;9.748;2023-06-14T01:15:25;3.13;;;2.77;;
8887;SDS011;4480;52.370;9.748;2023-06-14T01:17:53;4.47;;;3.33;;
8887;SDS011;4480;52.370;9.748;2023-06-14T01:20:29;4.37;;;3.13;;
8887;SDS011;4480;52.370;9.748;2023-06-14T01:22:58;5.00;;;3.33;;
8887;SDS011;4480;52.370;9.748;2023-06-14T01:25:25;3.00;;;2.70;;
8887;SDS011;4480;52.370;9.748;2023-06-14T01:27:53;5.27;;;3.10;;
8887;SDS011;4480;52.370;9.748;2023-06-14T01:30:25;5.20;;;3.87;;
8887;SDS011;4480;52.370;9.748;2023-06-14T01:32:53;4.33;;;3.03;;
8887;SDS011;4480;52.370;9.748;2023-06-14T01:35:20;3.50;;;2.90;;
8887;SDS011;4480;52.370;9.748;2023-06-14T01:37:48;5.20;;;2.73;;
8887;SDS011;4480;52.370;9.748;2023-06-14T01:40:16;4.20;;;2.93;;
8887;SDS011;4480;52.370;9.748;2023-06-14T01:42:44;3.30;;;3.00;;
8887;SDS011;4480;52.370;9.748;2023-06-14T01:45:13;3.50;;;3.20;;
8887;SDS011;4480;52.370;9.748;2023-06-14T01:47:41;5.03;;;4.40;;
8887;SDS011;4480;52.370;9.748;2023-06-14T01:50:09;3.40;;;3.10;;
8887;SDS011;4480;52.370;9.748;2023-06-14T01:52:36;3.50;;;3.20;;
8887;SDS011;4480;52.370;9.748;2023-06-14T01:55:04;4.17;;;2.97;;
8887;SDS011;4480;52.370;9.748;2023-06-14T01:57:32;3.40;;;3.10;;
8887;SDS011;4480;52.370;9.748;2023-06-14T01:59:59;6.13;;;3.43;;
8887;SDS011;4480;52.370;9.748;2023-06-14T02:02:28;5.43;;;3.00;;
8887;SDS011;4480;52.370;9.748;2023-06-14T02:04:55;6.13;;;3.03;;
8887;SDS011;4480;52.370;9.748;2023-06-14T02:07:22;4.97;;;3.13;;
8887;SDS011;4480;52.370;9.748;2023-06-14T02:09:49;5.30;;;2.87;;
8887;SDS011;4480;52.370;9.748;2023-06-14T02:12:16;4.83;;;2.77;;
8887;SDS011;4480;52.370;9.748;2023-06-14T02:14:44;4.87;;;3.40;;
8887;SDS011;4480;52.370;9.748;2023-06-14T02:17:11;5.17;;;3.30;;
8887;SDS011;4480;52.370;9.748;2023-06-14T02:19:37;6.23;;;3.50;;
8887;SDS011;4480;52.370;9.748;2023-06-14T02:22:04;5.40;;;2.83;;
8887;SDS011;4480;52.370;9.748;2023-06-14T02:24:31;6.63;;;3.07;;
8887;SDS011;4480;52.370;9.748;2023-06-14T02:26:58;5.73;;;3.10;;
8887;SDS011;4480;52.370;9.748;2023-06-14T02:29:25;2.77;;;2.57;;
8887;SDS011;4480;52.370;9.748;2023-06-14T02:31:53;4.33;;;2.80;;
8887;SDS011;4480;52.370;9.748;2023-06-14T02:34:20;3.90;;;2.90;;
8887;SDS011;4480;52.370;9.748;2023-06-14T02:36:47;4.40;;;4.00;;
8887;SDS011;4480;52.370;9.748;2023-06-14T02:39:14;3.73;;;3.13;;
8887;SDS011;4480;52.370;9.748;2023-06-14T02:41:42;6.30;;;3.23;;
8887;SDS011;4480;52.370;9.748;2023-06-14T02:44:09;3.83;;;2.70;;
8887;SDS011;4480;52.370;9.748;2023-06-14T02:46:37;3.30;;;3.00;;
8887;SDS011;4480;52.370;9.748;2023-06-14T02:49:06;3.73;;;3.10;;
8887;SDS011;4480;52.370;9.748;2023-06-14T02:51:32;2.93;;;2.63;;
8887;SDS011;4480;52.370;9.748;2023-06-14T02:53:59;5.10;;;3.33;;
8887;SDS011;4480;52.370;9.748;2023-06-14T02:56:26;5.03;;;2.63;;
8887;SDS011;4480;52.370;9.748;2023-06-14T02:58:53;4.30;;;2.83;;
8887;SDS011;4480;52.370;9.748;2023-06-14T03:01:20;5.10;;;3.00;;
8887;SDS011;4480;52.370;9.748;2023-06-14T03:03:48;3.17;;;2.87;;
8887;SDS011;4480;52.370;9.748;2023-06-14T03:06:16;4.77;;;3.00;;
8887;SDS011;4480;52.370;9.748;2023-06-14T03:08:43;5.23;;;2.93;;
8887;SDS011;4480;52.370;9.748;2023-06-14T03:11:11;4.07;;;2.50;;
8887;SDS011;4480;52.370;9.748;2023-06-14T03:13:38;3.97;;;2.67;;
8887;SDS011;4480;52.370;9.748;2023-06-14T03:16:05;5.70;;;3.43;;
8887;SDS011;4480;52.370;9.748;2023-06-14T03:18:33;3.33;;;3.00;;
8887;SDS011;4480;52.370;9.748;2023-06-14T03:21:01;4.37;;;3.13;;
8887;SDS011;4480;52.370;9.748;2023-06-14T03:23:29;7.30;;;3.30;;
8887;SDS011;4480;52.370;9.748;2023-06-14T03:25:56;3.23;;;2.93;;
8887;SDS011;4480;52.370;9.748;2023-06-14T03:28:23;3.33;;;2.50;;
8887;SDS011;4480;52.370;9.748;2023-06-14T03:30:50;2.87;;;2.67;;
8887;SDS011;4480;52.370;9.748;2023-06-14T03:33:17;3.43;;;2.47;;
8887;SDS011;4480;52.370;9.748;2023-06-14T03:35:44;4.60;;;2.60;;
8887;SDS011;4480;52.370;9.748;2023-06-14T03:38:11;3.30;;;2.90;;
8887;SDS011;4480;52.370;9.748;2023-06-14T03:40:39;3.77;;;2.90;;
8887;SDS011;4480;52.370;9.748;2023-06-14T03:43:06;4.37;;;3.83;;
8887;SDS011;4480;52.370;9.748;2023-06-14T03:45:33;6.20;;;2.93;;
8887;SDS011;4480;52.370;9.748;2023-06-14T03:47:59;2.70;;;2.40;;
8887;SDS011;4480;52.370;9.748;2023-06-14T03:50:26;2.97;;;2.67;;
8887;SDS011;4480;52.370;9.748;2023-06-14T03:52:53;3.57;;;3.00;;
8887;SDS011;4480;52.370;9.748;2023-06-14T03:55:20;4.47;;;3.40;;
8887;SDS011;4480;52.370;9.748;2023-06-14T03:57:48;3.20;;;2.70;;
8887;SDS011;4480;52.370;9.748;2023-06-14T04:00:15;3.57;;;3.23;;
8887;SDS011;4480;52.370;9.748;2023-06-14T04:02:43;3.17;;;2.87;;
8887;SDS011;4480;52.370;9.748;2023-06-14T04:05:10;5.70;;;2.80;;
8887;SDS011;4480;52.370;9.748;2023-06-14T04:07:37;5.30;;;2.70;;
8887;SDS011;4480;52.370;9.748;2023-06-14T04:11:48;5.90;;;3.17;;
8887;SDS011;4480;52.370;9.748;2023-06-14T04:14:15;2.93;;;2.53;;
8887;SDS011;4480;52.370;9.748;2023-06-14T04:16:41;3.30;;;3.00;;
8887;SDS011;4480;52.370;9.748;2023-06-14T04:19:08;3.23;;;2.93;;
8887;SDS011;4480;52.370;9.748;2023-06-14T04:21:35;3.53;;;2.70;;
8887;SDS011;4480;52.370;9.748;2023-06-14T04:24:02;3.07;;;2.20;;
8887;SDS011;4480;52.370;9.748;2023-06-14T04:26:29;3.50;;;3.10;;
8887;SDS011;4480;52.370;9.748;2023-06-14T04:28:59;5.57;;;2.70;;
8887;SDS011;4480;52.370;9.748;2023-06-14T04:31:27;9.53;;;2.97;;
8887;SDS011;4480;52.370;9.748;2023-06-14T04:33:54;6.40;;;2.67;;
8887;SDS011;4480;52.370;9.748;2023-06-14T04:36:21;3.20;;;2.90;;
8887;SDS011;4480;52.370;9.748;2023-06-14T04:38:47;5.23;;;2.93;;
8887;SDS011;4480;52.370;9.748;2023-06-14T04:41:19;5.47;;;2.70;;
8887;SDS011;4480;52.370;9.748;2023-06-14T04:43:47;3.80;;;3.00;;
8887;SDS011;4480;52.370;9.748;2023-06-14T04:46:16;4.83;;;2.43;;
8887;SDS011;4480;52.370;9.748;2023-06-14T04:48:43;4.13;;;3.10;;
8887;SDS011;4480;52.370;9.748;2023-06-14T04:51:10;7.40;;;3.30;;
8887;SDS011;4480;52.370;9.748;2023-06-14T04:53:38;7.47;;;2.80;;
8887;SDS011;4480;52.370;9.748;2023-06-14T04:56:04;4.77;;;2.87;;
8887;SDS011;4480;52.370;9.748;2023-06-14T04:58:32;5.00;;;3.00;;
8887;SDS011;4480;52.370;9.748;2023-06-14T05:00:59;6.30;;;2.80;;
8887;SDS011;4480;52.370;9.748;2023-06-14T05:03:28;4.60;;;3.37;;
8887;SDS011;4480;52.370;9.748;2023-06-14T05:05:55;4.17;;;2.73;;
8887;SDS011;4480;52.370;9.748;2023-06-14T05:08:22;4.30;;;2.20;;
8887;SDS011;4480;52.370;9.748;2023-06-14T05:10:49;4.63;;;2.43;;
8887;SDS011;4480;52.370;9.748;2023-06-14T05:13:16;3.37;;;2.20;;
8887;SDS011;4480;52.370;9.748;2023-06-14T05:15:43;8.30;;;2.77;;
8887;SDS011;4480;52.370;9.748;2023-06-14T05:18:10;11.20;;;2.93;;
8887;SDS011;4480;52.370;9.748;2023-06-14T05:20:39;10.17;;;2.87;;
8887;SDS011;4480;52.370;9.748;2023-06-14T05:23:06;5.07;;;2.63;;
8887;SDS011;4480;52.370;9.748;2023-06-14T05:25:33;4.27;;;3.27;;
8887;SDS011;4480;52.370;9.748;2023-06-14T05:28:00;5.37;;;2.90;;
8887;SDS011;4480;52.370;9.748;2023-06-14T05:30:27;10.13;;;2.90;;
8887;SDS011;4480;52.370;9.748;2023-06-14T05:32:55;7.67;;;2.60;;
8887;SDS011;4480;52.370;9.748;2023-06-14T05:35:22;5.33;;;2.70;;
8887;SDS011;4480;52.370;9.748;2023-06-14T05:37:53;3.73;;;2.13;;
8887;SDS011;4480;52.370;9.748;2023-06-14T05:40:20;4.90;;;2.70;;
8887;SDS011;4480;52.370;9.748;2023-06-14T05:42:46;5.37;;;2.13;;
8887;SDS011;4480;52.370;9.748;2023-06-14T05:45:13;7.37;;;2.50;;
8887;SDS011;4480;52.370;9.748;2023-06-14T05:47:41;5.60;;;2.70;;
8887;SDS011;4480;52.370;9.748;2023-06-14T05:50:08;6.83;;;2.43;;
8887;SDS011;4480;52.370;9.748;2023-06-14T05:52:35;4.83;;;2.50;;
8887;SDS011;4480;52.370;9.748;2023-06-14T05:55:04;4.30;;;2.80;;
8887;SDS011;4480;52.370;9.748;2023-06-14T05:57:31;3.20;;;2.30;;
8887;SDS011;4480;52.370;9.748;2023-06-14T05:59:58;3.37;;;2.33;;
8887;SDS011;4480;52.370;9.748;2023-06-14T06:02:25;3.93;;;2.80;;
8887;SDS011;4480;52.370;9.748;2023-06-14T06:04:52;6.23;;;3.10;;
8887;SDS011;4480;52.370;9.748;2023-06-14T06:07:18;4.37;;;2.40;;
8887;SDS011;4480;52.370;9.748;2023-06-14T06:09:45;3.73;;;2.40;;
8887;SDS011;4480;52.370;9.748;2023-06-14T06:12:14;5.90;;;2.03;;
8887;SDS011;4480;52.370;9.748;2023-06-14T06:14:41;6.10;;;2.10;;
8887;SDS011;4480;52.370;9.748;2023-06-14T06:17:08;2.97;;;2.13;;
8887;SDS011;4480;52.370;9.748;2023-06-14T06:19:34;2.67;;;2.20;;
8887;SDS011;4480;52.370;9.748;2023-06-14T06:22:01;3.60;;;2.90;;
8887;SDS011;4480;52.370;9.748;2023-06-14T06:24:30;3.63;;;2.60;;
8887;SDS011;4480;52.370;9.748;2023-06-14T06:26:56;6.27;;;1.97;;
8887;SDS011;4480;52.370;9.748;2023-06-14T06:29:24;6.03;;;2.70;;
8887;SDS011;4480;52.370;9.748;2023-06-14T06:31:51;5.47;;;2.80;;
8887;SDS011;4480;52.370;9.748;2023-06-14T06:34:18;3.40;;;2.20;;
8887;SDS011;4480;52.370;9.748;2023-06-14T06:36:45;4.93;;;2.70;;
8887;SDS011;4480;52.370;9.748;2023-06-14T06:39:11;3.80;;;2.80;;
8887;SDS011;4480;52.370;9.748;2023-06-14T06:41:40;5.70;;;2.67;;
8887;SDS011;4480;52.370;9.748;2023-06-14T06:44:07;2.33;;;2.03;;
8887;SDS011;4480;52.370;9.748;2023-06-14T06:46:36;4.33;;;3.67;;
8887;SDS011;4480;52.370;9.748;2023-06-14T06:49:05;3.50;;;3.10;;
8887;SDS011;4480;52.370;9.748;2023-06-14T06:51:31;3.77;;;2.83;;
8887;SDS011;4480;52.370;9.748;2023-06-14T06:53:58;6.57;;;2.70;;
8887;SDS011;4480;52.370;9.748;2023-06-14T06:56:25;3.90;;;2.77;;
8887;SDS011;4480;52.370;9.748;2023-06-14T06:58:52;7.47;;;2.73;;
8887;SDS011;4480;52.370;9.748;2023-06-14T07:01:19;8.63;;;2.70;;
8887;SDS011;4480;52.370;9.748;2023-06-14T07:03:47;6.13;;;2.53;;
8887;SDS011;4480;52.370;9.748;2023-06-14T07:06:14;4.63;;;3.07;;
8887;SDS011;4480;52.370;9.748;2023-06-14T07:08:42;8.47;;;2.90;;
8887;SDS011;4480;52.370;9.748;2023-06-14T07:11:09;7.13;;;2.90;;
8887;SDS011;4480;52.370;9.748;2023-06-14T07:13:36;5.33;;;2.57;;
8887;SDS011;4480;52.370;9.748;2023-06-14T07:16:03;3.50;;;2.30;;
8887;SDS011;4480;52.370;9.748;2023-06-14T07:18:30;3.60;;;2.00;;
8887;SDS011;4480;52.370;9.748;2023-06-14T07:20:59;4.03;;;2.30;;
8887;SDS011;4480;52.370;9.748;2023-06-14T07:23:26;4.23;;;2.60;;
8887;SDS011;4480;52.370;9.748;2023-06-14T07:25:52;5.10;;;2.30;;
8887;SDS011;4480;52.370;9.748;2023-06-14T07:28:19;4.27;;;2.40;;
8887;SDS011;4480;52.370;9.748;2023-06-14T07:30:46;10.23;;;2.80;;
8887;SDS011;4480;52.370;9.748;2023-06-14T07:33:13;5.93;;;2.50;;
8887;SDS011;4480;52.370;9.748;2023-06-14T07:35:40;4.77;;;2.87;;
8887;SDS011;4480;52.370;9.748;2023-06-14T07:38:08;2.50;;;2.20;;
8887;SDS011;4480;52.370;9.748;2023-06-14T07:40:35;4.40;;;2.37;;
8887;SDS011;4480;52.370;9.748;2023-06-14T07:43:02;4.77;;;2.50;;
8887;SDS011;4480;52.370;9.748;2023-06-14T07:45:29;5.27;;;2.67;;
8887;SDS011;4480;52.370;9.748;2023-06-14T07:47:56;2.90;;;2.33;;
8887;SDS011;4480;52.370;9.748;2023-06-14T07:50:23;9.93;;;2.43;;
8887;SDS011;4480;52.370;9.748;2023-06-14T07:52:49;2.63;;;2.40;;
8887;SDS011;4480;52.370;9.748;2023-06-14T07:55:18;2.53;;;2.17;;
8887;SDS011;4480;52.370;9.748;2023-06-14T07:57:44;2.60;;;2.20;;
8887;SDS011;4480;52.370;9.748;2023-06-14T08:00:11;5.80;;;2.60;;
8887;SDS011;4480;52.370;9.748;2023-06-14T08:02:40;2.70;;;2.50;;
8887;SDS011;4480;52.370;9.748;2023-06-14T08:05:08;3.13;;;2.53;;
8887;SDS011;4480;52.370;9.748;2023-06-14T08:07:36;3.20;;;2.77;;
8887;SDS011;4480;52.370;9.748;2023-06-14T08:10:04;5.90;;;2.50;;
8887;SDS011;4480;52.370;9.748;2023-06-14T08:12:32;3.00;;;2.40;;
8887;SDS011;4480;52.370;9.748;2023-06-14T08:15:00;2.70;;;2.50;;
8887;SDS011;4480;52.370;9.748;2023-06-14T08:17:27;3.00;;;2.33;;
8887;SDS011;4480;52.370;9.748;2023-06-14T08:19:54;2.93;;;2.33;;
8887;SDS011;4480;52.370;9.748;2023-06-14T08:22:22;3.07;;;2.50;;
8887;SDS011;4480;52.370;9.748;2023-06-14T08:24:49;5.43;;;2.77;;
8887;SDS011;4480;52.370;9.748;2023-06-14T08:27:18;5.83;;;2.90;;
8887;SDS011;4480;52.370;9.748;2023-06-14T08:29:46;3.00;;;2.20;;
8887;SDS011;4480;52.370;9.748;2023-06-14T08:32:13;2.53;;;2.27;;
8887;SDS011;4480;52.370;9.748;2023-06-14T08:34:40;2.63;;;2.43;;
8887;SDS011;4480;52.370;9.748;2023-06-14T08:37:06;3.40;;;2.93;;
8887;SDS011;4480;52.370;9.748;2023-06-14T08:39:33;5.27;;;3.20;;
8887;SDS011;4480;52.370;9.748;2023-06-14T08:42:01;5.63;;;2.40;;
8887;SDS011;4480;52.370;9.748;2023-06-14T08:44:28;2.67;;;2.47;;
8887;SDS011;4480;52.370;9.748;2023-06-14T08:46:57;2.77;;;2.53;;
8887;SDS011;4480;52.370;9.748;2023-06-14T08:49:25;3.50;;;2.47;;
8887;SDS011;4480;52.370;9.748;2023-06-14T08:51:53;5.87;;;2.40;;
8887;SDS011;4480;52.370;9.748;2023-06-14T08:54:23;2.30;;;2.10;;
8887;SDS011;4480;52.370;9.748;2023-06-14T08:56:54;4.07;;;2.50;;
8887;SDS011;4480;52.370;9.748;2023-06-14T08:59:23;2.27;;;1.97;;
8887;SDS011;4480;52.370;9.748;2023-06-14T09:01:51;2.63;;;2.27;;
8887;SDS011;4480;52.370;9.748;2023-06-14T09:04:20;7.60;;;2.87;;
8887;SDS011;4480;52.370;9.748;2023-06-14T09:06:47;5.00;;;2.30;;
8887;SDS011;4480;52.370;9.748;2023-06-14T09:09:18;5.90;;;2.80;;
8887;SDS011;4480;52.370;9.748;2023-06-14T09:11:46;3.47;;;2.67;;
8887;SDS011;4480;52.370;9.748;2023-06-14T09:14:13;3.00;;;2.60;;
8887;SDS011;4480;52.370;9.748;2023-06-14T09:16:40;2.87;;;1.97;;
8887;SDS011;4480;52.370;9.748;2023-06-14T09:19:06;2.50;;;2.10;;
8887;SDS011;4480;52.370;9.748;2023-06-14T09:21:35;3.47;;;3.17;;
8887;SDS011;4480;52.370;9.748;2023-06-14T09:24:02;2.53;;;2.33;;
8887;SDS011;4480;52.370;9.748;2023-06-14T09:26:31;5.30;;;1.97;;
8887;SDS011;4480;52.370;9.748;2023-06-14T09:28:57;2.70;;;2.50;;
8887;SDS011;4480;52.370;9.748;2023-06-14T09:31:25;2.47;;;1.80;;
8887;SDS011;4480;52.370;9.748;2023-06-14T09:33:56;3.20;;;2.40;;
8887;SDS011;4480;52.370;9.748;2023-06-14T09:36:24;2.87;;;2.20;;
8887;SDS011;4480;52.370;9.748;2023-06-14T09:38:53;2.53;;;2.33;;
8887;SDS011;4480;52.370;9.748;2023-06-14T09:41:27;2.30;;;2.10;;
8887;SDS011;4480;52.370;9.748;2023-06-14T09:43:58;2.73;;;2.30;;
8887;SDS011;4480;52.370;9.748;2023-06-14T09:46:27;2.40;;;2.20;;
8887;SDS011;4480;52.370;9.748;2023-06-14T09:48:54;3.47;;;1.93;;
8887;SDS011;4480;52.370;9.748;2023-06-14T09:51:21;3.97;;;2.10;;
8887;SDS011;4480;52.370;9.748;2023-06-14T09:53:49;4.10;;;2.70;;
8887;SDS011;4480;52.370;9.748;2023-06-14T09:56:18;2.70;;;2.50;;
8887;SDS011;4480;52.370;9.748;2023-06-14T09:58:49;2.57;;;2.37;;
8887;SDS011;4480;52.370;9.748;2023-06-14T10:01:20;2.73;;;2.20;;
8887;SDS011;4480;52.370;9.748;2023-06-14T10:03:49;3.93;;;2.47;;
8887;SDS011;4480;52.370;9.748;2023-06-14T10:06:19;3.63;;;2.43;;
8887;SDS011;4480;52.370;9.748;2023-06-14T10:08:49;2.90;;;2.40;;
8887;SDS011;4480;52.370;9.748;2023-06-14T10:11:19;3.00;;;2.60;;
8887;SDS011;4480;52.370;9.748;2023-06-14T10:13:47;3.07;;;2.37;;
8887;SDS011;4480;52.370;9.748;2023-06-14T10:16:17;3.83;;;2.33;;
8887;SDS011;4480;52.370;9.748;2023-06-14T10:18:48;2.93;;;2.63;;
8887;SDS011;4480;52.370;9.748;2023-06-14T10:21:21;3.03;;;2.73;;
8887;SDS011;4480;52.370;9.748;2023-06-14T10:23:54;4.67;;;2.87;;
8887;SDS011;4480;52.370;9.748;2023-06-14T10:26:27;2.93;;;2.07;;
8887;SDS011;4480;52.370;9.748;2023-06-14T10:28:57;3.03;;;2.53;;
8887;SDS011;4480;52.370;9.748;2023-06-14T10:34:11;3.27;;;2.70;;
8887;SDS011;4480;52.370;9.748;2023-06-14T10:36:41;3.20;;;2.90;;
8887;SDS011;4480;52.370;9.748;2023-06-14T10:39:10;7.20;;;3.20;;
8887;SDS011;4480;52.370;9.748;2023-06-14T10:41:50;2.80;;;2.43;;
8887;SDS011;4480;52.370;9.748;2023-06-14T10:47:21;3.73;;;3.10;;
8887;SDS011;4480;52.370;9.748;2023-06-14T10:49:53;3.07;;;2.77;;
8887;SDS011;4480;52.370;9.748;2023-06-14T10:52:22;3.07;;;2.77;;
8887;SDS011;4480;52.370;9.748;2023-06-14T10:55:03;4.07;;;3.00;;
8887;SDS011;4480;52.370;9.748;2023-06-14T10:57:35;3.30;;;2.60;;
8887;SDS011;4480;52.370;9.748;2023-06-14T11:00:04;4.20;;;3.07;;
8887;SDS011;4480;52.370;9.748;2023-06-14T11:05:41;2.70;;;2.40;;
8887;SDS011;4480;52.370;9.748;2023-06-14T11:11:36;4.93;;;3.20;;
8887;SDS011;4480;52.370;9.748;2023-06-14T11:14:09;4.70;;;3.03;;
8887;SDS011;4480;52.370;9.748;2023-06-14T11:20:08;4.67;;;3.50;;
8887;SDS011;4480;52.370;9.748;2023-06-14T11:22:38;4.27;;;3.00;;
8887;SDS011;4480;52.370;9.748;2023-06-14T11:25:08;3.03;;;2.77;;
8887;SDS011;4480;52.370;9.748;2023-06-14T11:27:35;2.80;;;2.60;;
8887;SDS011;4480;52.370;9.748;2023-06-14T11:30:06;4.33;;;3.77;;
8887;SDS011;4480;52.370;9.748;2023-06-14T11:32:34;2.90;;;2.70;;
8887;SDS011;4480;52.370;9.748;2023-06-14T11:35:01;3.20;;;2.90;;
8887;SDS011;4480;52.370;9.748;2023-06-14T11:37:29;3.77;;;3.00;;
8887;SDS011;4480;52.370;9.748;2023-06-14T11:39:58;3.27;;;2.97;;
8887;SDS011;4480;52.370;9.748;2023-06-14T11:42:26;2.73;;;2.53;;
8887;SDS011;4480;52.370;9.748;2023-06-14T11:44:53;3.57;;;3.00;;
8887;SDS011;4480;52.370;9.748;2023-06-14T11:47:21;4.90;;;2.60;;
8887;SDS011;4480;52.370;9.748;2023-06-14T11:49:49;5.60;;;2.83;;
8887;SDS011;4480;52.370;9.748;2023-06-14T11:52:16;3.80;;;2.77;;
8887;SDS011;4480;52.370;9.748;2023-06-14T11:54:44;3.43;;;2.17;;
8887;SDS011;4480;52.370;9.748;2023-06-14T11:57:13;4.53;;;3.40;;
8887;SDS011;4480;52.370;9.748;2023-06-14T11:59:40;6.10;;;3.33;;
8887;SDS011;4480;52.370;9.748;2023-06-14T12:02:09;3.33;;;2.97;;
8887;SDS011;4480;52.370;9.748;2023-06-14T12:04:41;7.37;;;3.43;;
8887;SDS011;4480;52.370;9.748;2023-06-14T12:07:08;4.83;;;3.00;;
8887;SDS011;4480;52.370;9.748;2023-06-14T12:09:37;4.97;;;4.13;;
8887;SDS011;4480;52.370;9.748;2023-06-14T12:12:04;5.57;;;3.30;;
8887;SDS011;4480;52.370;9.748;2023-06-14T12:14:32;3.47;;;2.80;;
8887;SDS011;4480;52.370;9.748;2023-06-14T12:17:03;6.73;;;3.70;;
8887;SDS011;4480;52.370;9.748;2023-06-14T12:19:31;3.20;;;2.90;;
8887;SDS011;4480;52.370;9.748;2023-06-14T12:22:00;4.50;;;3.73;;
8887;SDS011;4480;52.370;9.748;2023-06-14T12:24:30;3.13;;;2.83;;
8887;SDS011;4480;52.370;9.748;2023-06-14T12:26:58;3.50;;;3.00;;
8887;SDS011;4480;52.370;9.748;2023-06-14T12:29:28;4.47;;;3.30;;
8887;SDS011;4480;52.370;9.748;2023-06-14T12:31:54;4.53;;;3.37;;
8887;SDS011;4480;52.370;9.748;2023-06-14T12:34:22;3.37;;;3.07;;
8887;SDS011;4480;52.370;9.748;2023-06-14T12:36:49;3.80;;;3.40;;
8887;SDS011;4480;52.370;9.748;2023-06-14T12:39:18;3.73;;;3.40;;
8887;SDS011;4480;52.370;9.748;2023-06-14T12:41:44;5.93;;;3.17;;
8887;SDS011;4480;52.370;9.748;2023-06-14T12:44:11;4.00;;;3.60;;
8887;SDS011;4480;52.370;9.748;2023-06-14T12:46:39;3.40;;;3.10;;
8887;SDS011;4480;52.370;9.748;2023-06-14T12:49:07;6.40;;;3.70;;
8887;SDS011;4480;52.370;9.748;2023-06-14T12:51:34;5.70;;;3.70;;
8887;SDS011;4480;52.370;9.748;2023-06-14T12:54:01;4.63;;;3.83;;
8887;SDS011;4480;52.370;9.748;2023-06-14T12:56:29;3.63;;;3.33;;
8887;SDS011;4480;52.370;9.748;2023-06-14T12:58:56;3.90;;;3.50;;
8887;SDS011;4480;52.370;9.748;2023-06-14T13:01:24;6.13;;;3.70;;
8887;SDS011;4480;52.370;9.748;2023-06-14T13:03:51;4.43;;;4.00;;
8887;SDS011;4480;52.370;9.748;2023-06-14T13:06:20;5.40;;;3.13;;
8887;SDS011;4480;52.370;9.748;2023-06-14T13:08:47;11.90;;;4.50;;
8887;SDS011;4480;52.370;9.748;2023-06-14T13:11:14;6.30;;;3.13;;
8887;SDS011;4480;52.370;9.748;2023-06-14T13:13:42;4.20;;;3.30;;
8887;SDS011;4480;52.370;9.748;2023-06-14T13:16:09;6.13;;;4.03;;
8887;SDS011;4480;52.370;9.748;2023-06-14T13:18:37;4.87;;;3.50;;
8887;SDS011;4480;52.370;9.748;2023-06-14T13:21:04;4.40;;;3.77;;
8887;SDS011;4480;52.370;9.748;2023-06-14T13:23:31;4.83;;;3.27;;
8887;SDS011;4480;52.370;9.748;2023-06-14T13:25:58;4.17;;;3.77;;
8887;SDS011;4480;52.370;9.748;2023-06-14T13:28:24;5.20;;;4.43;;
8887;SDS011;4480;52.370;9.748;2023-06-14T13:30:54;6.63;;;3.30;;
8887;SDS011;4480;52.370;9.748;2023-06-14T13:33:20;4.63;;;3.07;;
8887;SDS011;4480;52.370;9.748;2023-06-14T13:35:49;4.43;;;3.50;;
8887;SDS011;4480;52.370;9.748;2023-06-14T13:38:17;6.30;;;3.50;;
8887;SDS011;4480;52.370;9.748;2023-06-14T13:40:44;4.37;;;3.63;;
8887;SDS011;4480;52.370;9.748;2023-06-14T13:43:11;4.00;;;3.40;;
8887;SDS011;4480;52.370;9.748;2023-06-14T13:45:38;5.10;;;4.20;;
8887;SDS011;4480;52.370;9.748;2023-06-14T13:48:06;4.93;;;3.63;;
8887;SDS011;4480;52.370;9.748;2023-06-14T13:50:33;3.93;;;3.50;;
8887;SDS011;4480;52.370;9.748;2023-06-14T13:53:00;5.87;;;3.80;;
8887;SDS011;4480;52.370;9.748;2023-06-14T13:55:27;4.33;;;3.77;;
8887;SDS011;4480;52.370;9.748;2023-06-14T13:57:53;3.93;;;3.20;;
8887;SDS011;4480;52.370;9.748;2023-06-14T14:00:21;4.57;;;3.53;;
8887;SDS011;4480;52.370;9.748;2023-06-14T14:02:48;5.00;;;3.40;;
8887;SDS011;4480;52.370;9.748;2023-06-14T14:05:17;3.80;;;3.50;;
8887;SDS011;4480;52.370;9.748;2023-06-14T14:07:45;4.20;;;3.70;;
8887;SDS011;4480;52.370;9.748;2023-06-14T14:10:12;5.27;;;3.90;;
8887;SDS011;4480;52.370;9.748;2023-06-14T14:12:39;5.20;;;4.13;;
8887;SDS011;4480;52.370;9.748;2023-06-14T14:15:06;4.60;;;3.63;;
8887;SDS011;4480;52.370;9.748;2023-06-14T14:17:37;4.40;;;4.00;;
8887;SDS011;4480;52.370;9.748;2023-06-14T14:20:05;8.43;;;4.40;;
8887;SDS011;4480;52.370;9.748;2023-06-14T14:22:34;5.50;;;4.07;;
8887;SDS011;4480;52.370;9.748;2023-06-14T14:25:00;4.77;;;3.53;;
8887;SDS011;4480;52.370;9.748;2023-06-14T14:27:27;4.83;;;3.40;;
8887;SDS011;4480;52.370;9.748;2023-06-14T14:29:54;4.20;;;3.40;;
8887;SDS011;4480;52.370;9.748;2023-06-14T14:32:21;4.17;;;3.53;;
8887;SDS011;4480;52.370;9.748;2023-06-14T14:34:47;5.20;;;3.63;;
8887;SDS011;4480;52.370;9.748;2023-06-14T14:37:15;3.83;;;3.53;;
8887;SDS011;4480;52.370;9.748;2023-06-14T14:39:44;6.13;;;3.50;;
8887;SDS011;4480;52.370;9.748;2023-06-14T14:42:12;5.60;;;4.07;;
8887;SDS011;4480;52.370;9.748;2023-06-14T14:44:39;5.20;;;3.83;;
8887;SDS011;4480;52.370;9.748;2023-06-14T14:47:06;5.90;;;3.20;;
8887;SDS011;4480;52.370;9.748;2023-06-14T14:49:33;4.93;;;3.57;;
8887;SDS011;4480;52.370;9.748;2023-06-14T14:51:59;3.77;;;3.40;;
8887;SDS011;4480;52.370;9.748;2023-06-14T14:54:26;3.70;;;3.37;;
8887;SDS011;4480;52.370;9.748;2023-06-14T14:56:55;6.60;;;3.93;;
8887;SDS011;4480;52.370;9.748;2023-06-14T14:59:22;9.63;;;3.63;;
8887;SDS011;4480;52.370;9.748;2023-06-14T15:01:49;5.20;;;3.97;;
8887;SDS011;4480;52.370;9.748;2023-06-14T15:04:16;5.53;;;4.17;;
8887;SDS011;4480;52.370;9.748;2023-06-14T15:06:42;8.13;;;3.67;;
8887;SDS011;4480;52.370;9.748;2023-06-14T15:09:09;4.93;;;3.77;;
8887;SDS011;4480;52.370;9.748;2023-06-14T15:11:36;6.23;;;3.60;;
8887;SDS011;4480;52.370;9.748;2023-06-14T15:14:04;4.13;;;3.50;;
8887;SDS011;4480;52.370;9.748;2023-06-14T15:16:31;5.10;;;4.33;;
8887;SDS011;4480;52.370;9.748;2023-06-14T15:18:58;5.77;;;3.53;;
8887;SDS011;4480;52.370;9.748;2023-06-14T15:21:24;3.90;;;3.33;;
8887;SDS011;4480;52.370;9.748;2023-06-14T15:23:51;6.33;;;3.73;;
8887;SDS011;4480;52.370;9.748;2023-06-14T15:26:18;4.80;;;3.70;;
8887;SDS011;4480;52.370;9.748;2023-06-14T15:28:45;4.17;;;3.63;;
8887;SDS011;4480;52.370;9.748;2023-06-14T15:31:13;4.63;;;3.73;;
8887;SDS011;4480;52.370;9.748;2023-06-14T15:33:40;5.83;;;3.60;;
8887;SDS011;4480;52.370;9.748;2023-06-14T15:36:07;5.60;;;3.87;;